Terminal Aerodrome Forecast
Issued by NWS

Home | Current Version | Previous Version | Text Only | Print | Product List | Glossary On
Versions: 1 2 3 4 5 6 7 8 9 10 11 12 13
000
FTUS44 KSJT 121100
TAFSOA
TAF
KSOA 121128Z 1212/1312 16007KT P6SM SCT025
      TEMPO 1212/1215 BKN016
     FM121500 17012G20KT P6SM SCT070
     FM130100 16007KT P6SM FEW200
      AMD NOT SKED=

USA.gov is the U.S. government's official web portal to all federal, state and local government web resources and services.